Dades meteomassalio
Diari Summary for Gener 7, 2017 Units:  Metric    English   Both
« Previous Day
Next Day »
Diari Semanal Mensual Anual Personalitzat
  Maxima: Minima: Mijana:
Temperatura: -17.8 °C -19.8 °C -17.1 °C
Rosada: -17.8 °C -21.1 °C -20.1 °C
Humitat: Humidity % 33 % 71 %
Velocitat del vent: 0 km/h 0 km/h 0 km/h
Racha vent: 0 km/h - -
Vent:- - North
Pressio: 0 hPa 34909.7 hPa -
Pluja: 0 mm    
Historical Graphs
 
 
Tabular Data for Gener 7, 2017
Time Temperature Dew Point Pressure Wind Wind Speed Wind Gust Humidity Rainfall Rate (Hourly) solar Conditions
-17.8 °C -17.8 °C 0 hPa Calm     Humidity % 0 mm SolarRadiationWatts/m^2 W/m2 Conditions
00:04 -19.2 °C -20.3 °C 34967.2 hPa Calm     86 % 0 mm 0.0 W/m2 CLR
00:09 -19.2 °C -20.3 °C 34967.2 hPa Calm     86 % 0 mm 0.0 W/m2 CLR
00:14 -19.3 °C -20.4 °C 34967.2 hPa Calm     86 % 0 mm 0.0 W/m2 CLR
00:20 -19.3 °C -20.3 °C 34957.1 hPa Calm     87 % 0 mm 0.0 W/m2 CLR
00:25 -19.3 °C -20.3 °C 34957.1 hPa Calm     87 % 0 mm 0.0 W/m2 CLR
00:30 -19.1 °C -20.2 °C 34957.1 hPa Calm     87 % 0 mm 0.0 W/m2 CLR
00:35 -19.1 °C -20.2 °C 34957.1 hPa Calm     86 % 0 mm 0.0 W/m2 CLR
00:40 -19.1 °C -20.2 °C 34957.1 hPa Calm     86 % 0 mm 0.0 W/m2 CLR
00:45 -19.1 °C -20.2 °C 34957.1 hPa Calm     86 % 0 mm 0.0 W/m2 CLR
00:50 -19.1 °C -20.2 °C 34957.1 hPa Calm     86 % 0 mm 0.0 W/m2 CLR
00:55 -19.1 °C -20.2 °C 34957.1 hPa Calm     86 % 0 mm 0.0 W/m2 CLR
01:00 -19.1 °C -20.2 °C 34957.1 hPa Calm     86 % 0 mm 0.0 W/m2 CLR
01:05 -19.1 °C -20.3 °C 34957.1 hPa Calm     85 % 0 mm 0.0 W/m2 CLR
01:10 -19.1 °C -20.3 °C 34957.1 hPa Calm     85 % 0 mm 0.0 W/m2 CLR
01:15 -19.2 °C -20.3 °C 34957.1 hPa Calm     86 % 0 mm 0.0 W/m2 CLR
01:20 -19.2 °C -20.3 °C 34957.1 hPa Calm     86 % 0 mm 0.0 W/m2 CLR
01:25 -19.2 °C -20.3 °C 34946.9 hPa Calm     86 % 0 mm 0.0 W/m2 CLR
01:30 -19.2 °C -20.3 °C 34957.1 hPa Calm     86 % 0 mm 0.0 W/m2 CLR
01:35 -19.2 °C -20.3 °C 34946.9 hPa Calm     86 % 0 mm 0.0 W/m2 CLR
01:40 -19.3 °C -20.4 °C 34957.1 hPa Calm     86 % 0 mm 0.0 W/m2 CLR
01:45 -19.3 °C -20.4 °C 34946.9 hPa Calm     86 % 0 mm 0.0 W/m2 CLR
01:50 -19.3 °C -20.3 °C 34946.9 hPa Calm     87 % 0 mm 0.0 W/m2 CLR
01:55 -19.2 °C -20.3 °C 34946.9 hPa Calm     86 % 0 mm 0.0 W/m2 CLR
02:00 -19.2 °C -20.3 °C 34946.9 hPa Calm     86 % 0 mm 0.0 W/m2 CLR
02:05 -19.1 °C -20.2 °C 34946.9 hPa Calm     86 % 0 mm 0.0 W/m2 CLR
02:10 -19 °C -20.2 °C 34946.9 hPa Calm     85 % 0 mm 0.0 W/m2 CLR
02:15 -19.1 °C -20.3 °C 34946.9 hPa Calm     85 % 0 mm 0.0 W/m2 CLR
02:20 -19.1 °C -20.3 °C 34946.9 hPa Calm     85 % 0 mm 0.0 W/m2 CLR
02:25 -19.2 °C -20.4 °C 34946.9 hPa Calm     85 % 0 mm 0.0 W/m2 CLR
02:30 -19.2 °C -20.3 °C 34946.9 hPa Calm     86 % 0 mm 0.0 W/m2 CLR
02:35 -19.2 °C -20.4 °C 34957.1 hPa Calm     85 % 0 mm 0.0 W/m2 CLR
02:40 -19.3 °C -20.5 °C 34957.1 hPa Calm     85 % 0 mm 0.0 W/m2 CLR
02:45 -19.3 °C -20.4 °C 34957.1 hPa Calm     86 % 0 mm 0.0 W/m2 CLR
02:50 -19.3 °C -20.4 °C 34957.1 hPa Calm     86 % 0 mm 0.0 W/m2 CLR
02:55 -19.2 °C -20.3 °C 34957.1 hPa Calm     86 % 0 mm 0.0 W/m2 CLR
03:00 -19.2 °C -20.3 °C 34957.1 hPa Calm     86 % 0 mm 0.0 W/m2 CLR
03:05 -19.2 °C -20.3 °C 34957.1 hPa Calm     86 % 0 mm 0.0 W/m2 CLR
03:10 -19.2 °C -20.3 °C 34957.1 hPa Calm     86 % 0 mm 0.0 W/m2 CLR
03:15 -19.2 °C -20.3 °C 34957.1 hPa Calm     86 % 0 mm 0.0 W/m2 CLR
03:20 -19.2 °C -20.3 °C 34957.1 hPa Calm     86 % 0 mm 0.0 W/m2 CLR
03:25 -19.1 °C -20.2 °C 34957.1 hPa Calm     87 % 0 mm 0.0 W/m2 CLR
03:30 -19 °C -20.1 °C 34957.1 hPa Calm     86 % 0 mm 0.0 W/m2 CLR
03:35 -19 °C -20.2 °C 34957.1 hPa Calm     85 % 0 mm 0.0 W/m2 CLR
03:40 -19 °C -20.2 °C 34957.1 hPa Calm     85 % 0 mm 0.0 W/m2 CLR
03:45 -19.1 °C -20.3 °C 34957.1 hPa Calm     85 % 0 mm 0.0 W/m2 CLR
03:50 -19.1 °C -20.2 °C 34957.1 hPa Calm     86 % 0 mm 0.0 W/m2 CLR
03:55 -19.1 °C -20.3 °C 34957.1 hPa Calm     85 % 0 mm 0.0 W/m2 CLR
04:00 -19.2 °C -20.4 °C 34957.1 hPa Calm     85 % 0 mm 0.0 W/m2 CLR
04:05 -19.3 °C -20.4 °C 34957.1 hPa Calm     86 % 0 mm 0.0 W/m2 CLR
04:10 -19.3 °C -20.4 °C 34957.1 hPa Calm     86 % 0 mm 0.0 W/m2 CLR
04:15 -19.3 °C -20.4 °C 34957.1 hPa Calm     86 % 0 mm 0.0 W/m2 CLR
04:20 -19.3 °C -20.3 °C 34957.1 hPa Calm     87 % 0 mm 0.0 W/m2 CLR
04:25 -19.3 °C -20.4 °C 34957.1 hPa Calm     87 % 0 mm 0.0 W/m2 CLR
04:30 -19.4 °C -20.4 °C 34957.1 hPa Calm     87 % 0 mm 0.0 W/m2 CLR
04:35 -19.3 °C -20.4 °C 34957.1 hPa Calm     87 % 0 mm 0.0 W/m2 CLR
04:40 -19.3 °C -20.3 °C 34957.1 hPa Calm     87 % 0 mm 0.0 W/m2 CLR
04:45 -19.2 °C -20.3 °C 34957.1 hPa Calm     87 % 0 mm 0.0 W/m2 CLR
04:50 -19.2 °C -20.3 °C 34957.1 hPa Calm     86 % 0 mm 0.0 W/m2 CLR
04:55 -19.2 °C -20.3 °C 34957.1 hPa Calm     86 % 0 mm 0.0 W/m2 CLR
05:00 -19.2 °C -20.3 °C 34957.1 hPa Calm     86 % 0 mm 0.0 W/m2 CLR
05:05 -19.3 °C -20.4 °C 34957.1 hPa Calm     86 % 0 mm 0.0 W/m2 CLR
05:10 -19.3 °C -20.4 °C 34957.1 hPa Calm     86 % 0 mm 0.0 W/m2 CLR
05:15 -19.3 °C -20.4 °C 34957.1 hPa Calm     86 % 0 mm 0.0 W/m2 CLR
05:20 -19.3 °C -20.3 °C 34957.1 hPa Calm     87 % 0 mm 0.0 W/m2 CLR
05:25 -19.3 °C -20.3 °C 34957.1 hPa Calm     87 % 0 mm 0.0 W/m2 CLR
05:30 -19.2 °C -20.2 °C 34957.1 hPa Calm     87 % 0 mm 0.0 W/m2 CLR
05:36 -19.2 °C -20.3 °C 34957.1 hPa Calm     86 % 0 mm 0.0 W/m2 CLR
05:41 -19.2 °C -20.3 °C 34957.1 hPa Calm     86 % 0 mm 0.0 W/m2 CLR
05:46 -19.3 °C -20.4 °C 34957.1 hPa Calm     86 % 0 mm 0.0 W/m2 CLR
05:51 -19.3 °C -20.4 °C 34957.1 hPa Calm     86 % 0 mm 0.0 W/m2 CLR
05:56 -19.3 °C -20.4 °C 34957.1 hPa Calm     86 % 0 mm 0.0 W/m2 CLR
06:01 -19.3 °C -20.4 °C 34957.1 hPa Calm     86 % 0 mm 0.0 W/m2 CLR
06:06 -19.3 °C -20.4 °C 34957.1 hPa Calm     86 % 0 mm 0.0 W/m2 CLR
06:11 -19.3 °C -20.4 °C 34957.1 hPa Calm     86 % 0 mm 0.0 W/m2 CLR
06:16 -19.4 °C -20.5 °C 34957.1 hPa Calm     86 % 0 mm 0.0 W/m2 CLR
06:21 -19.5 °C -20.6 °C 34957.1 hPa Calm     86 % 0 mm 0.0 W/m2 CLR
06:26 -19.5 °C -20.5 °C 34957.1 hPa Calm     87 % 0 mm 0.0 W/m2 CLR
06:31 -19.6 °C -20.7 °C 34957.1 hPa Calm     86 % 0 mm 0.0 W/m2 CLR
06:36 -19.7 °C -20.7 °C 34957.1 hPa Calm     87 % 0 mm 0.0 W/m2 CLR
06:41 -19.7 °C -20.7 °C 34957.1 hPa Calm     87 % 0 mm 0.0 W/m2 CLR
06:46 -19.7 °C -20.7 °C 34957.1 hPa Calm     88 % 0 mm 0.0 W/m2 CLR
06:51 -19.7 °C -20.7 °C 34957.1 hPa Calm     88 % 0 mm 0.0 W/m2 CLR
06:56 -19.7 °C -20.7 °C 34957.1 hPa Calm     88 % 0 mm 0.0 W/m2 CLR
07:01 -19.7 °C -20.7 °C 34957.1 hPa Calm     88 % 0 mm 0.0 W/m2 CLR
07:06 -19.7 °C -20.6 °C 34967.2 hPa Calm     88 % 0 mm 0.0 W/m2 CLR
07:11 -19.6 °C -20.7 °C 34967.2 hPa Calm     87 % 0 mm 0.0 W/m2 CLR
07:16 -19.6 °C -20.7 °C 34967.2 hPa Calm     87 % 0 mm 0.0 W/m2 CLR
07:21 -19.7 °C -20.7 °C 34967.2 hPa Calm     87 % 0 mm 0.0 W/m2 CLR
07:26 -19.7 °C -20.7 °C 34967.2 hPa Calm     87 % 0 mm 0.0 W/m2 CLR
07:31 -19.7 °C -20.7 °C 34967.2 hPa Calm     87 % 0 mm 0.0 W/m2 CLR
07:36 -19.8 °C -20.8 °C 34967.2 hPa Calm     87 % 0 mm 0.0 W/m2 CLR
07:41 -19.8 °C -20.8 °C 34967.2 hPa Calm     87 % 0 mm 0.0 W/m2 CLR
07:46 -19.8 °C -20.9 °C 34967.2 hPa Calm     87 % 0 mm 0.0 W/m2 CLR
07:51 -19.8 °C -20.9 °C 34980.8 hPa Calm     87 % 0 mm 0.0 W/m2 CLR
07:56 -19.8 °C -20.8 °C 34980.8 hPa Calm     87 % 0 mm 0.0 W/m2 CLR
08:01 -19.8 °C -20.8 °C 34980.8 hPa Calm     87 % 0 mm 0.0 W/m2 CLR
08:06 -19.8 °C -20.7 °C 34980.8 hPa Calm     88 % 0 mm 0.0 W/m2 CLR
08:11 -19.7 °C -20.7 °C 34980.8 hPa Calm     87 % 0 mm 0.0 W/m2 CLR
08:16 -19.6 °C -20.7 °C 34980.8 hPa Calm     86 % 0 mm 0.0 W/m2 CLR
08:21 -19.4 °C -20.6 °C 34980.8 hPa Calm     86 % 0 mm 0.0 W/m2 CLR
08:26 -19.4 °C -20.6 °C 34980.8 hPa Calm     85 % 0 mm 0.0 W/m2 OVC
08:31 -19.6 °C -20.8 °C 34990.9 hPa Calm     84 % 0 mm 5.0 W/m2 BKN
08:36 -19.7 °C -20.9 °C 34980.8 hPa Calm     85 % 0 mm 9.0 W/m2 BKN
08:41 -19.7 °C -20.9 °C 34980.8 hPa Calm     85 % 0 mm 12.0 W/m2 BKN
08:46 -19.6 °C -20.7 °C 34990.9 hPa Calm     86 % 0 mm 14.0 W/m2 BKN
08:51 -19.4 °C -20.6 °C 34990.9 hPa Calm     86 % 0 mm 18.0 W/m2 BKN
08:56 -19.3 °C -20.5 °C 34990.9 hPa Calm     85 % 0 mm 26.0 W/m2 BKN
09:01 -19.3 °C -20.6 °C 34990.9 hPa Calm     84 % 0 mm 37.0 W/m2 BKN
09:06 -19.1 °C -20.4 °C 34990.9 hPa Calm     84 % 0 mm 44.0 W/m2 BKN
09:11 -18.9 °C -20.2 °C 34990.9 hPa Calm     84 % 0 mm 62.0 W/m2 BKN
09:16 -18.7 °C -20.2 °C 34990.9 hPa Calm     82 % 0 mm 65.0 W/m2 BKN
09:21 -18.6 °C -20.1 °C 34990.9 hPa Calm     82 % 0 mm 63.0 W/m2 BKN
09:26 -18.3 °C -19.9 °C 34990.9 hPa Calm     81 % 0 mm 83.0 W/m2 BKN
09:31 -18.2 °C -19.8 °C 34990.9 hPa Calm     80 % 0 mm 100.0 W/m2 BKN
09:36 -18.1 °C -19.9 °C 34990.9 hPa Calm     78 % 0 mm 95.0 W/m2 BKN
09:41 -18.1 °C -20.1 °C 34990.9 hPa Calm     77 % 0 mm 151.0 W/m2 BKN
09:46 -18 °C -20.1 °C 35001.1 hPa Calm     76 % 0 mm 163.0 W/m2 SCT
09:51 -17.9 °C -19.9 °C 35001.1 hPa Calm     76 % 0 mm 132.0 W/m2 SCT
09:56 -17.7 °C -19.8 °C 35001.1 hPa Calm     75 % 0 mm 171.0 W/m2 SCT
10:01 -17.4 °C -19.8 °C 35001.1 hPa Calm     73 % 0 mm 185.0 W/m2 SCT
10:06 -17.3 °C -19.9 °C 35001.1 hPa Calm     71 % 0 mm 109.0 W/m2 SCT
10:11 -17.1 °C -19.6 °C 35001.1 hPa Calm     72 % 0 mm 216.0 W/m2 SCT
10:16 -16.9 °C -19.7 °C 35001.1 hPa Calm     69 % 0 mm 121.0 W/m2 BKN
10:21 -16.7 °C -19.8 °C 35001.1 hPa Calm     67 % 0 mm 239.0 W/m2 SCT
10:26 -16.6 °C -19.7 °C 35001.1 hPa Calm     67 % 0 mm 225.0 W/m2 SCT
10:31 -16.4 °C -19.4 °C 35001.1 hPa Calm     67 % 0 mm 264.0 W/m2 SCT
10:36 -16.2 °C -19.5 °C 35001.1 hPa Calm     65 % 0 mm 274.0 W/m2 SCT
10:41 -16.1 °C -19.6 °C 35001.1 hPa Calm     63 % 0 mm 285.0 W/m2 SCT
10:46 -15.9 °C -19.5 °C 35001.1 hPa Calm     63 % 0 mm 294.0 W/m2 FEW
10:51 -15.9 °C -19.4 °C 35001.1 hPa Calm     63 % 0 mm 306.0 W/m2 FEW
10:56 -15.8 °C -19.6 °C 35001.1 hPa Calm     61 % 0 mm 315.0 W/m2 FEW
11:01 -15.7 °C -19.3 °C 35001.1 hPa Calm     63 % 0 mm 323.0 W/m2 FEW
11:06 -15.7 °C -19.3 °C 35001.1 hPa Calm     62 % 0 mm 332.0 W/m2 FEW
11:11 -15.4 °C -19.1 °C 35001.1 hPa Calm     63 % 0 mm 343.0 W/m2 FEW
11:16 -15.3 °C -19.1 °C 35001.1 hPa Calm     61 % 0 mm 350.0 W/m2 FEW
11:21 -15.2 °C -19 °C 35001.1 hPa Calm     61 % 0 mm 359.0 W/m2 FEW
11:26 -15.1 °C -19.1 °C 35001.1 hPa Calm     59 % 0 mm 366.0 W/m2 FEW
11:31 -15.1 °C -19.1 °C 35001.1 hPa Calm     59 % 0 mm 373.0 W/m2 FEW
11:36 -15.1 °C -19.1 °C 35001.1 hPa Calm     59 % 0 mm 381.0 W/m2 FEW
11:41 -14.9 °C -19.1 °C 34990.9 hPa Calm     59 % 0 mm 387.0 W/m2 FEW
11:46 -14.8 °C -18.9 °C 34990.9 hPa Calm     59 % 0 mm 394.0 W/m2 FEW
11:52 -14.7 °C -19.2 °C 34990.9 hPa Calm     56 % 0 mm 401.0 W/m2 FEW
11:57 -14.6 °C -19.1 °C 34990.9 hPa Calm     56 % 0 mm 406.0 W/m2 CLR
12:02 -14.5 °C -19 °C 34990.9 hPa Calm     56 % 0 mm 411.0 W/m2 CLR
12:07 -14.3 °C -19.3 °C 34990.9 hPa Calm     53 % 0 mm 415.0 W/m2 CLR
12:12 -14.2 °C -19.1 °C 34980.8 hPa Calm     54 % 0 mm 422.0 W/m2 CLR
12:17 -13.9 °C -18.9 °C 34980.8 hPa Calm     53 % 0 mm 429.0 W/m2 CLR
12:22 -13.7 °C -19 °C 34980.8 hPa Calm     51 % 0 mm 432.0 W/m2 CLR
12:27 -13.5 °C -18.8 °C 34967.2 hPa Calm     51 % 0 mm 436.0 W/m2 CLR
12:32 -13.4 °C -18.8 °C 34967.2 hPa Calm     50 % 0 mm 436.0 W/m2 CLR
12:37 -13.2 °C -18.7 °C 34967.2 hPa Calm     50 % 0 mm 441.0 W/m2 CLR
12:42 -13.2 °C -18.9 °C 34967.2 hPa Calm     48 % 0 mm 443.0 W/m2 CLR
12:47 -13.1 °C -18.9 °C 34967.2 hPa Calm     48 % 0 mm 445.0 W/m2 CLR
12:52 -13 °C -18.9 °C 34967.2 hPa Calm     47 % 0 mm 448.0 W/m2 CLR
12:57 -13 °C -18.9 °C 34967.2 hPa Calm     47 % 0 mm 448.0 W/m2 CLR
13:02 -12.9 °C -19.1 °C 34957.1 hPa Calm     46 % 0 mm 452.0 W/m2 CLR
13:07 -12.9 °C -19.2 °C 34957.1 hPa Calm     45 % 0 mm 452.0 W/m2 CLR
13:12 -12.9 °C -18.7 °C 34946.9 hPa Calm     48 % 0 mm 450.0 W/m2 CLR
13:17 -12.9 °C -19.3 °C 34946.9 hPa Calm     44 % 0 mm 452.0 W/m2 CLR
13:22 -12.8 °C -19.6 °C 34946.9 hPa Calm     42 % 0 mm 450.0 W/m2 CLR
13:27 -12.8 °C -20.1 °C 34933.4 hPa Calm     39 % 0 mm 448.0 W/m2 CLR
13:32 -12.7 °C -20.4 °C 34933.4 hPa Calm     37 % 0 mm 448.0 W/m2 CLR
13:37 -12.7 °C -20.4 °C 34933.4 hPa Calm     37 % 0 mm 446.0 W/m2 CLR
13:42 -12.7 °C -20.6 °C 34933.4 hPa Calm     36 % 0 mm 436.0 W/m2 CLR
13:47 -12.6 °C -20.7 °C 34933.4 hPa Calm     35 % 0 mm 436.0 W/m2 CLR
13:52 -12.6 °C -20.7 °C 34933.4 hPa Calm     35 % 0 mm 422.0 W/m2 CLR
13:57 -12.6 °C -20.7 °C 34923.2 hPa Calm     35 % 0 mm 427.0 W/m2 CLR
14:02 -12.4 °C -21.1 °C 34923.2 hPa Calm     33 % 0 mm 427.0 W/m2 CLR
14:07 -12.4 °C -20.6 °C 34923.2 hPa Calm     35 % 0 mm 425.0 W/m2 CLR
14:12 -12.3 °C -20.7 °C 34909.7 hPa Calm     34 % 0 mm 418.0 W/m2 CLR
14:17 -12.2 °C -20.4 °C 34909.7 hPa Calm     35 % 0 mm 410.0 W/m2 CLR
14:22 -12.3 °C -20.4 °C 34909.7 hPa Calm     35 % 0 mm 403.0 W/m2 CLR
14:27 -12.3 °C -20.1 °C 34909.7 hPa Calm     37 % 0 mm 406.0 W/m2 CLR
14:32 -12.2 °C -20.7 °C 34909.7 hPa Calm     34 % 0 mm 401.0 W/m2 CLR
14:37 -12.1 °C -20.5 °C 34909.7 hPa Calm     34 % 0 mm 388.0 W/m2 CLR
14:42 -12.1 °C -20.1 °C 34909.7 hPa Calm     36 % 0 mm 385.0 W/m2 CLR
14:47 -12.1 °C -20.1 °C 34909.7 hPa Calm     36 % 0 mm 373.0 W/m2 CLR
14:52 -12.3 °C -19.3 °C 34909.7 hPa Calm     41 % 0 mm 371.0 W/m2 CLR
14:57 -12.5 °C -18.8 °C 34909.7 hPa Calm     45 % 0 mm 364.0 W/m2 CLR
15:02 -12.7 °C -18.9 °C 34909.7 hPa Calm     45 % 0 mm 355.0 W/m2 CLR
15:07 -12.7 °C -18.7 °C 34909.7 hPa Calm     47 % 0 mm 346.0 W/m2 CLR
15:12 -12.7 °C -18.7 °C 34909.7 hPa Calm     47 % 0 mm 338.0 W/m2 CLR
15:22 -12.7 °C -18.5 °C 34909.7 hPa Calm     48 % 0 mm 315.0 W/m2 CLR
15:27 -12.6 °C -18.2 °C 34909.7 hPa Calm     49 % 0 mm 306.0 W/m2 CLR
15:32 -12.7 °C -18.4 °C 34909.7 hPa Calm     48 % 0 mm 297.0 W/m2 CLR
15:37 -12.8 °C -18.5 °C 34909.7 hPa Calm     49 % 0 mm 287.0 W/m2 CLR
15:42 -12.9 °C -18.6 °C 34909.7 hPa Calm     49 % 0 mm 274.0 W/m2 CLR
15:47 -13.1 °C -19 °C 34923.2 hPa Calm     47 % 0 mm 260.0 W/m2 CLR
15:52 -13.2 °C -19.1 °C 34923.2 hPa Calm     47 % 0 mm 248.0 W/m2 CLR
15:57 -13.2 °C -19.3 °C 34923.2 hPa Calm     46 % 0 mm 236.0 W/m2 CLR
16:02 -13.3 °C -19.3 °C 34923.2 hPa Calm     46 % 0 mm 221.0 W/m2 CLR
16:07 -13.3 °C -19.5 °C 34923.2 hPa Calm     45 % 0 mm 204.0 W/m2 CLR
16:13 -13.3 °C -19.6 °C 34923.2 hPa Calm     45 % 0 mm 190.0 W/m2 CLR
16:18 -13.3 °C -19.4 °C 34923.2 hPa Calm     46 % 0 mm 176.0 W/m2 CLR
16:23 -13.2 °C -19.2 °C 34923.2 hPa Calm     47 % 0 mm 162.0 W/m2 CLR
16:28 -13.2 °C -19.1 °C 34923.2 hPa Calm     47 % 0 mm 146.0 W/m2 CLR
16:33 -13.2 °C -19.4 °C 34923.2 hPa Calm     45 % 0 mm 132.0 W/m2 CLR
16:38 -13 °C -19.1 °C 34923.2 hPa Calm     46 % 0 mm 118.0 W/m2 CLR
16:43 -12.9 °C -19.2 °C 34923.2 hPa Calm     45 % 0 mm 105.0 W/m2 CLR
16:48 -12.9 °C -19.6 °C 34923.2 hPa Calm     43 % 0 mm 90.0 W/m2 CLR
16:53 -13.1 °C -19.6 °C 34923.2 hPa Calm     44 % 0 mm 79.0 W/m2 CLR
16:58 -13.2 °C -19.7 °C 34933.4 hPa Calm     44 % 0 mm 62.0 W/m2 CLR
17:03 -13.4 °C -20.2 °C 34933.4 hPa Calm     42 % 0 mm 56.0 W/m2 OVC
17:08 -13.7 °C -20.2 °C 34933.4 hPa Calm     43 % 0 mm 40.0 W/m2 OVC
17:13 -13.8 °C -20.3 °C 34933.4 hPa Calm     43 % 0 mm 30.0 W/m2 OVC
17:18 -13.8 °C -20.2 °C 34933.4 hPa Calm     44 % 0 mm 23.0 W/m2 OVC
17:23 -14 °C -20.2 °C 34933.4 hPa Calm     45 % 0 mm 18.0 W/m2 OVC
17:33 -14.3 °C -20.1 °C 34946.9 hPa Calm     47 % 0 mm 12.0 W/m2 OVC
17:38 -14.5 °C -20.2 °C 34946.9 hPa Calm     48 % 0 mm 12.0 W/m2 OVC
17:43 -14.6 °C -20.1 °C 34946.9 hPa Calm     49 % 0 mm 9.0 W/m2 OVC
17:48 -14.8 °C -20.2 °C 34946.9 hPa Calm     49 % 0 mm 5.0 W/m2 OVC
17:53 -14.8 °C -20.3 °C 34946.9 hPa Calm     49 % 0 mm 0.0 W/m2 CLR
17:58 -14.9 °C -20.4 °C 34957.1 hPa Calm     49 % 0 mm 0.0 W/m2 CLR
18:03 -14.9 °C -20.3 °C 34957.1 hPa Calm     50 % 0 mm 0.0 W/m2 CLR
18:08 -15.1 °C -20.1 °C 34957.1 hPa Calm     52 % 0 mm 0.0 W/m2 CLR
18:13 -15.2 °C -20.2 °C 34957.1 hPa Calm     52 % 0 mm 0.0 W/m2 CLR
18:18 -15.4 °C -20.1 °C 34957.1 hPa Calm     54 % 0 mm 0.0 W/m2 CLR
18:28 -15.7 °C -20.1 °C 34957.1 hPa Calm     56 % 0 mm 0.0 W/m2 CLR
18:33 -15.8 °C -20 °C 34957.1 hPa Calm     58 % 0 mm 0.0 W/m2 CLR
18:38 -15.9 °C -20.1 °C 34957.1 hPa Calm     58 % 0 mm 0.0 W/m2 CLR
18:43 -16.1 °C -19.9 °C 34967.2 hPa Calm     60 % 0 mm 0.0 W/m2 CLR
18:53 -16.4 °C -19.8 °C 34967.2 hPa Calm     64 % 0 mm 0.0 W/m2 CLR
18:58 -16.6 °C -19.9 °C 34967.2 hPa Calm     64 % 0 mm 0.0 W/m2 CLR
19:03 -16.7 °C -19.8 °C 34967.2 hPa Calm     66 % 0 mm 0.0 W/m2 CLR
19:08 -16.8 °C -19.8 °C 34967.2 hPa Calm     67 % 0 mm 0.0 W/m2 CLR
19:13 -16.9 °C -19.9 °C 34980.8 hPa Calm     67 % 0 mm 0.0 W/m2 CLR
19:18 -17.1 °C -19.9 °C 34980.8 hPa Calm     68 % 0 mm 0.0 W/m2 CLR
19:23 -17.2 °C -20 °C 34980.8 hPa Calm     69 % 0 mm 0.0 W/m2 CLR
19:28 -17.3 °C -20 °C 34980.8 hPa Calm     70 % 0 mm 0.0 W/m2 CLR
19:33 -17.4 °C -19.9 °C 34980.8 hPa Calm     71 % 0 mm 0.0 W/m2 CLR
19:38 -17.5 °C -19.9 °C 34980.8 hPa Calm     72 % 0 mm 0.0 W/m2 CLR
19:43 -17.6 °C -19.9 °C 34990.9 hPa Calm     73 % 0 mm 0.0 W/m2 CLR
19:48 -17.7 °C -20.1 °C 34990.9 hPa Calm     73 % 0 mm 0.0 W/m2 CLR
19:53 -17.7 °C -20 °C 34990.9 hPa Calm     74 % 0 mm 0.0 W/m2 CLR
19:58 -17.8 °C -19.9 °C 34990.9 hPa Calm     75 % 0 mm 0.0 W/m2 CLR
20:03 -17.8 °C -19.9 °C 34990.9 hPa Calm     75 % 0 mm 0.0 W/m2 CLR
20:08 -17.9 °C -20.1 °C 34990.9 hPa Calm     75 % 0 mm 0.0 W/m2 CLR
20:13 -18 °C -20.1 °C 34990.9 hPa Calm     76 % 0 mm 0.0 W/m2 CLR
20:18 -18.1 °C -20.1 °C 35001.1 hPa Calm     77 % 0 mm 0.0 W/m2 CLR
20:23 -18.2 °C -20.1 °C 35001.1 hPa Calm     78 % 0 mm 0.0 W/m2 CLR
20:28 -18.2 °C -20.1 °C 35001.1 hPa Calm     78 % 0 mm 0.0 W/m2 CLR
20:33 -18.3 °C -20.1 °C 35001.1 hPa Calm     78 % 0 mm 0.0 W/m2 CLR
20:38 -18.3 °C -20.1 °C 35001.1 hPa Calm     79 % 0 mm 0.0 W/m2 CLR
20:43 -18.4 °C -20.1 °C 35001.1 hPa Calm     79 % 0 mm 0.0 W/m2 CLR
20:48 -18.4 °C -20.1 °C 35001.1 hPa Calm     80 % 0 mm 0.0 W/m2 CLR
20:53 -18.4 °C -20.1 °C 35001.1 hPa Calm     79 % 0 mm 0.0 W/m2 CLR
20:58 -18.4 °C -20.2 °C 35001.1 hPa Calm     79 % 0 mm 0.0 W/m2 CLR
21:03 -18.4 °C -20.1 °C 35001.1 hPa Calm     80 % 0 mm 0.0 W/m2 CLR
21:08 -18.5 °C -20.2 °C 35001.1 hPa Calm     80 % 0 mm 0.0 W/m2 CLR
21:13 -18.6 °C -20.2 °C 35001.1 hPa Calm     80 % 0 mm 0.0 W/m2 CLR
21:23 -18.6 °C -20.2 °C 35001.1 hPa Calm     81 % 0 mm 0.0 W/m2 CLR
21:28 -18.6 °C -20.2 °C 35014.6 hPa Calm     81 % 0 mm 0.0 W/m2 CLR
21:33 -18.7 °C -20.2 °C 35014.6 hPa Calm     81 % 0 mm 0.0 W/m2 CLR
21:38 -18.7 °C -20.2 °C 35014.6 hPa Calm     81 % 0 mm 0.0 W/m2 CLR
21:44 -18.7 °C -20.2 °C 35001.1 hPa Calm     81 % 0 mm 0.0 W/m2 CLR
21:49 -18.7 °C -20.2 °C 35001.1 hPa Calm     81 % 0 mm 0.0 W/m2 CLR
21:54 -18.7 °C -20.2 °C 35001.1 hPa Calm     81 % 0 mm 0.0 W/m2 CLR
21:59 -18.7 °C -20.2 °C 35001.1 hPa Calm     81 % 0 mm 0.0 W/m2 CLR
22:04 -18.6 °C -20.2 °C 35001.1 hPa Calm     81 % 0 mm 0.0 W/m2 CLR
22:09 -18.6 °C -20.2 °C 35001.1 hPa Calm     81 % 0 mm 0.0 W/m2 CLR
22:14 -18.6 °C -20.2 °C 35001.1 hPa Calm     81 % 0 mm 0.0 W/m2 CLR
22:19 -18.7 °C -20.2 °C 35001.1 hPa Calm     81 % 0 mm 0.0 W/m2 CLR
22:24 -18.6 °C -20.3 °C 35001.1 hPa Calm     80 % 0 mm 0.0 W/m2 CLR
22:29 -18.6 °C -20.3 °C 35001.1 hPa Calm     80 % 0 mm 0.0 W/m2 CLR
22:34 -18.6 °C -20.3 °C 35001.1 hPa Calm     79 % 0 mm 0.0 W/m2 CLR
22:39 -18.6 °C -20.3 °C 35001.1 hPa Calm     79 % 0 mm 0.0 W/m2 CLR
22:44 -18.6 °C -20.3 °C 35001.1 hPa Calm     79 % 0 mm 0.0 W/m2 CLR
22:49 -18.6 °C -20.3 °C 35001.1 hPa Calm     79 % 0 mm 0.0 W/m2 CLR
22:54 -18.6 °C -20.3 °C 35014.6 hPa Calm     79 % 0 mm 0.0 W/m2 CLR
22:59 -18.6 °C -20.3 °C 35001.1 hPa Calm     79 % 0 mm 0.0 W/m2 CLR
23:04 -18.6 °C -20.3 °C 35001.1 hPa Calm     79 % 0 mm 0.0 W/m2 CLR
23:09 -18.7 °C -20.3 °C 35001.1 hPa Calm     80 % 0 mm 0.0 W/m2 CLR
23:14 -18.7 °C -20.4 °C 35001.1 hPa Calm     80 % 0 mm 0.0 W/m2 CLR
23:19 -18.8 °C -20.3 °C 35001.1 hPa Calm     81 % 0 mm 0.0 W/m2 CLR
23:24 -18.8 °C -20.4 °C 35001.1 hPa Calm     81 % 0 mm 0.0 W/m2 CLR
23:29 -18.8 °C -20.4 °C 35001.1 hPa Calm     81 % 0 mm 0.0 W/m2 CLR
23:34 -18.9 °C -20.4 °C 35001.1 hPa Calm     82 % 0 mm 0.0 W/m2 CLR
23:39 -18.9 °C -20.4 °C 35001.1 hPa Calm     82 % 0 mm 0.0 W/m2 CLR
23:44 -18.9 °C -20.4 °C 35014.6 hPa Calm     82 % 0 mm 0.0 W/m2 CLR
23:49 -18.9 °C -20.4 °C 35014.6 hPa Calm     81 % 0 mm 0.0 W/m2 CLR
23:54 -18.9 °C -20.5 °C 35014.6 hPa Calm     81 % 0 mm 0.0 W/m2 CLR
23:59 -18.9 °C -20.5 °C 35014.6 hPa Calm     81 % 0 mm 0.0 W/m2 CLR
Lo Temps de Massalio
Compliments of Weather Underground - 1.25 mb